Time;durP1;ratioP1;P1;durP2;ratioP2;P2;SDS_P1;SDS_P2;PMS_P1;PMS_P2;Temp;Humidity;BMP_temperature;BMP_pressure;BME280_temperature;BME280_humidity;BME280_pressure;Samples;Min_cycle;Max_cycle;Signal;HPM_P1;HPM_P2
2021/05/27 00:01:54;;;;;;;495.30;332.25;;;;;;;;;;4996075;28;20381;-75
2021/05/27 00:04:20;;;;;;;493.80;331.75;;;;;;;;;;4994309;28;20081;-75
2021/05/27 00:06:46;;;;;;;496.60;329.52;;;;;;;;;;4978873;28;20026;-75
2021/05/27 00:09:12;;;;;;;503.15;331.05;;;;;;;;;;5001505;28;20026;-75
2021/05/27 00:11:38;;;;;;;500.52;331.80;;;;;;;;;;4983865;28;20682;-77
2021/05/27 00:14:04;;;;;;;501.60;333.05;;;;;;;;;;4994867;28;20421;-76
2021/05/27 00:16:31;;;;;;;502.63;332.85;;;;;;;;;;4978463;28;20061;-75
2021/05/27 00:18:57;;;;;;;500.90;332.83;;;;;;;;;;4972795;28;20044;-75
2021/05/27 00:21:23;;;;;;;499.33;328.92;;;;;;;;;;4984103;28;20462;-74
2021/05/27 00:23:49;;;;;;;504.25;332.52;;;;;;;;;;4975756;28;20417;-76
2021/05/27 00:26:16;;;;;;;504.98;331.75;;;;;;;;;;4977607;28;20050;-75
2021/05/27 00:28:42;;;;;;;506.10;330.63;;;;;;;;;;5002892;28;20305;-76
2021/05/27 00:31:08;;;;;;;505.55;331.45;;;;;;;;;;4993474;28;20038;-74
2021/05/27 00:33:35;;;;;;;506.38;332.67;;;;;;;;;;4995131;28;20052;-74
2021/05/27 00:36:01;;;;;;;501.55;324.13;;;;;;;;;;4984766;28;20116;-76
2021/05/27 00:38:27;;;;;;;511.83;329.42;;;;;;;;;;4978054;28;20034;-76
2021/05/27 00:40:53;;;;;;;516.63;339.95;;;;;;;;;;4981153;28;20022;-75
2021/05/27 00:43:19;;;;;;;515.63;334.85;;;;;;;;;;4998435;28;20087;-76
2021/05/27 00:45:45;;;;;;;517.60;337.50;;;;;;;;;;4979813;28;20018;-75
2021/05/27 00:50:58;;;;;;;517.88;331.55;;;;;;;;;;4997594;28;20072;-75
2021/05/27 00:53:25;;;;;;;520.78;338.35;;;;;;;;;;4994748;28;20030;-74
2021/05/27 00:55:51;;;;;;;518.58;342.02;;;;;;;;;;4994998;28;20061;-74
2021/05/27 00:58:18;;;;;;;519.42;334.90;;;;;;;;;;5008335;28;20052;-76
2021/05/27 01:00:44;;;;;;;525.22;343.08;;;;;;;;;;4974958;28;20018;-74
2021/05/27 01:03:10;;;;;;;520.80;341.77;;;;;;;;;;4993163;28;20026;-75
2021/05/27 01:05:37;;;;;;;523.70;344.48;;;;;;;;;;5000184;28;20406;-75
2021/05/27 01:08:03;;;;;;;521.92;336.73;;;;;;;;;;4977148;28;20104;-74
2021/05/27 01:10:29;;;;;;;522.15;339.45;;;;;;;;;;4987900;28;20068;-76
2021/05/27 01:12:55;;;;;;;520.67;333.05;;;;;;;;;;4997840;28;20029;-75
2021/05/27 01:15:29;;;;;;;521.47;343.70;;;;;;;;;;5000237;28;20342;-77
2021/05/27 01:17:57;;;;;;;524.92;347.70;;;;;;;;;;4980571;28;20333;-75
2021/05/27 01:20:23;;;;;;;524.70;350.00;;;;;;;;;;4985848;28;20045;-76
2021/05/27 01:22:50;;;;;;;528.92;348.48;;;;;;;;;;4990720;28;20014;-73
2021/05/27 01:25:16;;;;;;;522.35;332.35;;;;;;;;;;4987745;28;20107;-75
2021/05/27 01:27:45;;;;;;;535.47;346.00;;;;;;;;;;4996375;28;20058;-76
2021/05/27 01:30:12;;;;;;;537.15;354.58;;;;;;;;;;5001054;28;20037;-75
2021/05/27 01:32:40;;;;;;;535.83;350.70;;;;;;;;;;4993020;28;20026;-75
2021/05/27 01:35:07;;;;;;;521.47;340.52;;;;;;;;;;4994244;28;20025;-75
2021/05/27 01:37:33;;;;;;;536.05;359.30;;;;;;;;;;4993186;28;20046;-74
2021/05/27 01:40:01;;;;;;;536.45;352.75;;;;;;;;;;4997704;28;20679;-76
2021/05/27 01:42:27;;;;;;;533.28;353.52;;;;;;;;;;4994776;28;20091;-74
2021/05/27 01:44:53;;;;;;;524.17;342.95;;;;;;;;;;4978447;28;20021;-75
2021/05/27 01:47:19;;;;;;;527.97;336.20;;;;;;;;;;4998327;28;20034;-75
2021/05/27 01:49:45;;;;;;;521.60;335.10;;;;;;;;;;4980051;28;20030;-74
2021/05/27 01:52:11;;;;;;;517.10;336.17;;;;;;;;;;4983253;28;20026;-75
2021/05/27 01:54:37;;;;;;;521.50;334.10;;;;;;;;;;4976076;28;20394;-77
2021/05/27 01:57:03;;;;;;;518.10;331.58;;;;;;;;;;4980022;28;20033;-74
2021/05/27 01:59:29;;;;;;;535.90;358.10;;;;;;;;;;4977469;28;20113;-76
2021/05/27 02:01:56;;;;;;;537.47;349.75;;;;;;;;;;4974473;28;20118;-76
2021/05/27 02:04:21;;;;;;;526.85;349.25;;;;;;;;;;4998027;28;20061;-74
2021/05/27 02:06:47;;;;;;;536.17;351.50;;;;;;;;;;4981793;28;20042;-75
2021/05/27 02:09:13;;;;;;;537.80;346.88;;;;;;;;;;5000756;28;20115;-75
2021/05/27 02:11:43;;;;;;;542.65;350.00;;;;;;;;;;4999618;28;20033;-74
2021/05/27 02:14:10;;;;;;;541.22;342.17;;;;;;;;;;4996421;28;20030;-75
2021/05/27 02:16:36;;;;;;;534.13;349.55;;;;;;;;;;4981399;28;20087;-76
2021/05/27 02:19:03;;;;;;;549.75;357.92;;;;;;;;;;4995718;28;20038;-74
2021/05/27 02:21:29;;;;;;;554.97;356.73;;;;;;;;;;4995029;28;20069;-73
2021/05/27 02:23:56;;;;;;;538.90;351.92;;;;;;;;;;4995951;28;20411;-74
2021/05/27 02:26:22;;;;;;;515.60;337.63;;;;;;;;;;4979056;28;20050;-74
2021/05/27 02:28:48;;;;;;;517.88;343.23;;;;;;;;;;4995447;28;20448;-77
2021/05/27 02:31:15;;;;;;;505.30;330.90;;;;;;;;;;4993722;28;20744;-74
2021/05/27 02:33:41;;;;;;;505.95;329.15;;;;;;;;;;5000488;28;20097;-74
2021/05/27 02:36:07;;;;;;;506.27;331.08;;;;;;;;;;4975626;28;20555;-74
2021/05/27 02:38:33;;;;;;;508.17;336.05;;;;;;;;;;4985162;28;20021;-75
2021/05/27 02:40:59;;;;;;;505.90;332.02;;;;;;;;;;4991638;28;20424;-76
2021/05/27 02:43:25;;;;;;;511.23;340.25;;;;;;;;;;4997441;28;20034;-74
2021/05/27 02:45:51;;;;;;;504.02;331.27;;;;;;;;;;4987815;28;20121;-74
2021/05/27 02:48:17;;;;;;;511.05;337.48;;;;;;;;;;4994833;28;20105;-74
2021/05/27 02:50:43;;;;;;;508.70;330.77;;;;;;;;;;4999219;28;20042;-74
2021/05/27 02:53:09;;;;;;;510.52;333.15;;;;;;;;;;4995031;28;20018;-75
2021/05/27 02:55:35;;;;;;;514.67;328.85;;;;;;;;;;4972711;28;20114;-74
2021/05/27 02:58:01;;;;;;;519.70;335.92;;;;;;;;;;4984968;28;20112;-76
2021/05/27 03:00:27;;;;;;;535.33;355.13;;;;;;;;;;4996253;28;20033;-75
2021/05/27 03:02:53;;;;;;;536.65;352.75;;;;;;;;;;4996625;28;20026;-76
2021/05/27 03:05:19;;;;;;;526.65;333.17;;;;;;;;;;4975007;28;20083;-77
2021/05/27 03:07:45;;;;;;;543.25;353.52;;;;;;;;;;4992911;28;20372;-74
2021/05/27 03:10:12;;;;;;;529.75;346.33;;;;;;;;;;4989517;28;20057;-74
2021/05/27 03:12:38;;;;;;;532.42;347.02;;;;;;;;;;4995635;28;20025;-75
2021/05/27 03:15:05;;;;;;;533.30;354.23;;;;;;;;;;4982656;28;20412;-76
2021/05/27 03:17:31;;;;;;;537.33;346.67;;;;;;;;;;4995710;28;20390;-76
2021/05/27 03:19:56;;;;;;;569.60;369.05;;;;;;;;;;4994371;28;20030;-74
2021/05/27 03:22:22;;;;;;;536.35;351.17;;;;;;;;;;4992375;28;20026;-74
2021/05/27 03:24:48;;;;;;;541.05;345.92;;;;;;;;;;4992096;28;20425;-74
2021/05/27 03:27:14;;;;;;;554.15;358.88;;;;;;;;;;4974480;28;20035;-74
2021/05/27 03:29:40;;;;;;;536.25;348.08;;;;;;;;;;5000885;28;20054;-77
2021/05/27 03:32:06;;;;;;;555.58;355.88;;;;;;;;;;4995212;28;20029;-75
2021/05/27 03:34:33;;;;;;;532.13;344.40;;;;;;;;;;4994422;28;20026;-76
2021/05/27 03:36:59;;;;;;;538.63;343.33;;;;;;;;;;4990849;28;20024;-75
2021/05/27 03:39:25;;;;;;;538.05;353.88;;;;;;;;;;4995388;28;20108;-77
2021/05/27 03:41:51;;;;;;;545.03;350.77;;;;;;;;;;4996669;28;20038;-75
2021/05/27 03:44:17;;;;;;;553.83;361.23;;;;;;;;;;4990938;28;20371;-76
2021/05/27 03:46:43;;;;;;;556.85;362.02;;;;;;;;;;4993628;28;20038;-74
2021/05/27 03:49:09;;;;;;;563.72;356.58;;;;;;;;;;4997758;28;20018;-76
2021/05/27 03:51:35;;;;;;;561.40;372.13;;;;;;;;;;4974391;28;20030;-75
2021/05/27 03:54:01;;;;;;;552.20;363.70;;;;;;;;;;4996890;28;20479;-75
2021/05/27 03:56:28;;;;;;;551.90;364.67;;;;;;;;;;4986640;28;20026;-75
2021/05/27 04:01:38;;;;;;;566.47;359.83;;;;;;;;;;4994753;28;20842;-73
2021/05/27 04:07:10;;;;;;;541.33;355.25;;;;;;;;;;4993128;28;20028;-75
2021/05/27 04:09:36;;;;;;;533.70;342.13;;;;;;;;;;4995326;28;20055;-75
2021/05/27 04:15:20;;;;;;;555.05;361.13;;;;;;;;;;4995986;28;20086;-75
2021/05/27 04:17:32;;;;;;;550.63;354.73;;;;;;;;;;4991156;28;20034;-75
2021/05/27 04:19:58;;;;;;;536.90;343.65;;;;;;;;;;4989168;28;20073;-74
2021/05/27 04:22:24;;;;;;;544.20;349.45;;;;;;;;;;4985849;28;20023;-74
2021/05/27 04:24:51;;;;;;;547.25;350.23;;;;;;;;;;4979856;28;20110;-75
2021/05/27 04:27:17;;;;;;;539.92;347.02;;;;;;;;;;5005671;28;20013;-74
2021/05/27 04:29:43;;;;;;;540.05;351.73;;;;;;;;;;5003909;28;20034;-76
2021/05/27 04:32:52;;;;;;;546.97;353.90;;;;;;;;;;4982321;28;20113;-75
2021/05/27 04:34:55;;;;;;;548.83;355.63;;;;;;;;;;4999371;28;20049;-74
2021/05/27 04:37:21;;;;;;;549.90;360.48;;;;;;;;;;5003563;28;20115;-75
2021/05/27 04:39:47;;;;;;;566.03;377.00;;;;;;;;;;4997053;28;20052;-75
2021/05/27 04:42:14;;;;;;;567.28;364.98;;;;;;;;;;4999054;28;20026;-77
2021/05/27 04:44:40;;;;;;;503.85;319.95;;;;;;;;;;4998060;28;20030;-75
2021/05/27 04:47:06;;;;;;;500.35;329.38;;;;;;;;;;4995653;28;20026;-75
2021/05/27 04:49:32;;;;;;;498.75;322.33;;;;;;;;;;4979218;28;20105;-75
2021/05/27 04:51:58;;;;;;;492.73;324.83;;;;;;;;;;4994533;28;20121;-77
2021/05/27 04:54:24;;;;;;;489.55;325.58;;;;;;;;;;4990181;28;20033;-76
2021/05/27 04:56:50;;;;;;;488.38;322.80;;;;;;;;;;4980631;28;20041;-75
2021/05/27 04:59:16;;;;;;;490.40;329.77;;;;;;;;;;4983935;28;20014;-75
2021/05/27 05:01:42;;;;;;;485.23;320.02;;;;;;;;;;4978550;28;20025;-75
2021/05/27 05:04:08;;;;;;;495.80;326.38;;;;;;;;;;4984278;28;20029;-76
2021/05/27 05:06:34;;;;;;;492.42;331.17;;;;;;;;;;4995231;28;20038;-74
2021/05/27 05:09:00;;;;;;;501.92;324.30;;;;;;;;;;4996680;28;20029;-75
2021/05/27 05:11:26;;;;;;;496.20;332.45;;;;;;;;;;4978471;28;20026;-75
2021/05/27 05:13:52;;;;;;;504.40;332.23;;;;;;;;;;4993415;28;20574;-76
2021/05/27 05:16:17;;;;;;;498.35;327.75;;;;;;;;;;4997163;28;20434;-76
2021/05/27 05:18:43;;;;;;;510.65;341.98;;;;;;;;;;4982980;28;20051;-76
2021/05/27 05:21:09;;;;;;;518.72;344.05;;;;;;;;;;4997245;28;20030;-76
2021/05/27 05:23:35;;;;;;;518.65;335.45;;;;;;;;;;4996429;28;20068;-77
2021/05/27 05:26:01;;;;;;;526.08;343.42;;;;;;;;;;4978913;28;20026;-75
2021/05/27 05:28:27;;;;;;;516.70;338.80;;;;;;;;;;5013299;28;20403;-74
2021/05/27 05:30:53;;;;;;;508.33;330.35;;;;;;;;;;4995066;28;20509;-75
2021/05/27 05:33:19;;;;;;;520.13;348.27;;;;;;;;;;4977100;28;20038;-76
2021/05/27 05:35:45;;;;;;;513.60;336.50;;;;;;;;;;4994551;28;20090;-76
2021/05/27 05:38:11;;;;;;;509.50;334.85;;;;;;;;;;4993042;28;20094;-76
2021/05/27 05:40:37;;;;;;;508.88;335.55;;;;;;;;;;4975486;28;20029;-75
2021/05/27 05:43:03;;;;;;;513.22;338.20;;;;;;;;;;4991615;28;20491;-75
2021/05/27 05:45:29;;;;;;;512.78;334.05;;;;;;;;;;4995179;28;20399;-74
2021/05/27 05:47:55;;;;;;;520.65;342.80;;;;;;;;;;4979688;28;20029;-75
2021/05/27 05:53:07;;;;;;;514.45;330.02;;;;;;;;;;5000381;28;20110;-75
2021/05/27 05:55:33;;;;;;;511.80;328.30;;;;;;;;;;4980599;28;20030;-77
2021/05/27 05:58:00;;;;;;;524.13;343.85;;;;;;;;;;4992659;28;20144;-75
2021/05/27 06:00:27;;;;;;;512.58;330.25;;;;;;;;;;4997088;28;20013;-75
2021/05/27 06:02:53;;;;;;;517.72;333.15;;;;;;;;;;4979651;28;20328;-74
2021/05/27 06:05:19;;;;;;;538.78;358.30;;;;;;;;;;4994352;28;20034;-74
2021/05/27 06:07:45;;;;;;;501.23;329.55;;;;;;;;;;4974346;28;20053;-75
2021/05/27 06:10:11;;;;;;;491.33;322.92;;;;;;;;;;4983295;28;20030;-76
2021/05/27 06:12:40;;;;;;;492.42;318.02;;;;;;;;;;4997088;28;20022;-74
2021/05/27 06:15:07;;;;;;;489.42;325.98;;;;;;;;;;4994096;28;20087;-76
2021/05/27 06:17:33;;;;;;;485.05;319.77;;;;;;;;;;4991403;28;20029;-74
2021/05/27 06:19:59;;;;;;;493.42;327.08;;;;;;;;;;4981335;28;20018;-74
2021/05/27 06:22:25;;;;;;;503.50;329.02;;;;;;;;;;4974693;28;20079;-75
2021/05/27 06:24:51;;;;;;;520.10;340.90;;;;;;;;;;4994951;28;20227;-75
2021/05/27 06:27:17;;;;;;;519.13;344.10;;;;;;;;;;4973392;28;20019;-76
2021/05/27 06:29:43;;;;;;;528.15;339.30;;;;;;;;;;4996869;28;20018;-76
2021/05/27 06:32:09;;;;;;;535.35;350.23;;;;;;;;;;4993249;28;20042;-74
2021/05/27 06:34:35;;;;;;;566.70;380.48;;;;;;;;;;4993454;28;20131;-75
2021/05/27 06:37:01;;;;;;;643.60;429.05;;;;;;;;;;4977282;28;20323;-76
2021/05/27 06:39:27;;;;;;;519.95;325.38;;;;;;;;;;4995523;28;20032;-76
2021/05/27 06:41:55;;;;;;;508.20;334.75;;;;;;;;;;4977463;28;20022;-74
2021/05/27 06:44:21;;;;;;;540.70;362.05;;;;;;;;;;5000450;28;20068;-75
2021/05/27 06:46:47;;;;;;;504.17;332.98;;;;;;;;;;4985899;28;20026;-75
2021/05/27 06:49:13;;;;;;;554.63;363.30;;;;;;;;;;4987956;28;20036;-74
2021/05/27 06:51:42;;;;;;;541.00;348.85;;;;;;;;;;4992489;28;20064;-75
2021/05/27 06:54:08;;;;;;;504.85;336.33;;;;;;;;;;4978512;28;20029;-75
2021/05/27 06:56:35;;;;;;;502.02;334.30;;;;;;;;;;4986817;28;20689;-77
2021/05/27 06:59:01;;;;;;;502.80;331.45;;;;;;;;;;4982476;28;20022;-77
2021/05/27 07:01:28;;;;;;;501.27;331.35;;;;;;;;;;5004879;28;20025;-77
2021/05/27 07:03:54;;;;;;;503.27;331.00;;;;;;;;;;4986643;28;20022;-76
2021/05/27 07:06:20;;;;;;;516.38;345.55;;;;;;;;;;5000080;28;20058;-78
2021/05/27 07:08:47;;;;;;;511.77;336.92;;;;;;;;;;5000012;28;20046;-77
2021/05/27 07:11:15;;;;;;;518.65;333.25;;;;;;;;;;4999762;28;20054;-78
2021/05/27 07:13:42;;;;;;;515.88;340.60;;;;;;;;;;4998271;28;20034;-75
2021/05/27 07:16:08;;;;;;;537.08;348.45;;;;;;;;;;4983404;28;20018;-75
2021/05/27 07:18:34;;;;;;;571.03;372.95;;;;;;;;;;4999705;28;20033;-77
2021/05/27 07:21:00;;;;;;;537.55;357.52;;;;;;;;;;5001551;28;20045;-76
2021/05/27 07:23:26;;;;;;;512.15;333.52;;;;;;;;;;4987765;28;20028;-75
2021/05/27 07:25:52;;;;;;;517.17;335.95;;;;;;;;;;4990747;28;20014;-75
2021/05/27 07:28:22;;;;;;;517.85;339.65;;;;;;;;;;5007331;28;20397;-76
2021/05/27 07:30:48;;;;;;;519.38;349.10;;;;;;;;;;4988418;28;20049;-76
2021/05/27 07:33:14;;;;;;;531.40;349.75;;;;;;;;;;4990162;28;20073;-76
2021/05/27 07:35:40;;;;;;;530.20;342.30;;;;;;;;;;4999703;28;20731;-76
2021/05/27 07:38:06;;;;;;;516.25;344.05;;;;;;;;;;4998452;28;20094;-79
2021/05/27 07:40:33;;;;;;;520.80;338.90;;;;;;;;;;4985400;28;20117;-75
2021/05/27 07:42:59;;;;;;;524.45;342.42;;;;;;;;;;4978274;28;20030;-77
2021/05/27 07:45:25;;;;;;;504.83;334.75;;;;;;;;;;4984483;28;20687;-75
2021/05/27 07:47:51;;;;;;;509.60;338.85;;;;;;;;;;5008325;28;20030;-75
2021/05/27 07:50:20;;;;;;;509.92;333.05;;;;;;;;;;4998375;28;20644;-74
2021/05/27 07:52:47;;;;;;;503.13;327.03;;;;;;;;;;5004725;28;20146;-77
2021/05/27 07:55:13;;;;;;;515.10;342.23;;;;;;;;;;4989873;28;20102;-77
2021/05/27 07:57:39;;;;;;;514.95;346.02;;;;;;;;;;5007656;28;20030;-76
2021/05/27 08:00:06;;;;;;;516.38;344.85;;;;;;;;;;4985675;28;20025;-76
2021/05/27 08:02:32;;;;;;;506.35;329.02;;;;;;;;;;4997877;28;20042;-76
2021/05/27 08:04:58;;;;;;;515.80;340.30;;;;;;;;;;5002768;28;20022;-76
2021/05/27 08:07:23;;;;;;;510.05;332.73;;;;;;;;;;4982957;28;20045;-75
2021/05/27 08:09:49;;;;;;;515.08;340.88;;;;;;;;;;4985679;28;20061;-75
2021/05/27 08:12:15;;;;;;;522.00;340.88;;;;;;;;;;4982450;28;20022;-74
2021/05/27 08:14:41;;;;;;;511.00;340.42;;;;;;;;;;5007275;28;20101;-75
2021/05/27 08:17:07;;;;;;;515.00;342.05;;;;;;;;;;5010802;28;20017;-75
2021/05/27 08:19:35;;;;;;;510.67;336.98;;;;;;;;;;4993528;28;20086;-75
2021/05/27 08:22:01;;;;;;;513.85;333.67;;;;;;;;;;5014378;28;20016;-77
2021/05/27 08:24:27;;;;;;;511.42;339.88;;;;;;;;;;5003877;28;20018;-78
2021/05/27 08:26:53;;;;;;;516.22;343.67;;;;;;;;;;4991345;28;20069;-78
2021/05/27 08:29:19;;;;;;;515.45;343.70;;;;;;;;;;4995512;28;20049;-75
2021/05/27 08:31:45;;;;;;;504.83;330.38;;;;;;;;;;5003202;28;20604;-76
2021/05/27 08:34:11;;;;;;;517.40;349.95;;;;;;;;;;4998463;28;20033;-76
2021/05/27 08:36:38;;;;;;;516.78;344.83;;;;;;;;;;4988093;28;20053;-75
2021/05/27 08:39:05;;;;;;;512.28;338.40;;;;;;;;;;5004093;28;20018;-75
2021/05/27 08:41:31;;;;;;;512.95;342.40;;;;;;;;;;4999224;28;20021;-77
2021/05/27 08:43:58;;;;;;;521.22;351.52;;;;;;;;;;5000192;28;20062;-81
2021/05/27 08:46:24;;;;;;;517.08;345.55;;;;;;;;;;4981217;28;20026;-77
2021/05/27 08:48:50;;;;;;;515.90;339.10;;;;;;;;;;4997080;28;20477;-75
2021/05/27 08:51:17;;;;;;;516.17;338.60;;;;;;;;;;4995512;28;20022;-77
2021/05/27 08:53:44;;;;;;;516.17;353.35;;;;;;;;;;4997944;28;20496;-77
2021/05/27 08:56:11;;;;;;;521.85;349.88;;;;;;;;;;5000837;28;20026;-77
2021/05/27 08:58:37;;;;;;;527.78;355.98;;;;;;;;;;4997963;28;20493;-76
2021/05/27 09:01:03;;;;;;;531.65;361.63;;;;;;;;;;5000878;28;20155;-75
2021/05/27 09:03:42;;;;;;;529.00;355.10;;;;;;;;;;5001877;28;20030;-77
2021/05/27 09:06:09;;;;;;;518.70;353.13;;;;;;;;;;4993297;28;20045;-77
2021/05/27 09:08:38;;;;;;;516.90;351.20;;;;;;;;;;4995373;28;20144;-75
2021/05/27 09:11:05;;;;;;;513.67;350.65;;;;;;;;;;4998171;28;20046;-75
2021/05/27 09:13:32;;;;;;;515.28;348.67;;;;;;;;;;4999370;28;20104;-77
2021/05/27 09:16:13;;;;;;;526.50;362.58;;;;;;;;;;4983281;28;20010;-75
2021/05/27 09:18:41;;;;;;;529.97;353.85;;;;;;;;;;4995844;28;20026;-75
2021/05/27 09:21:08;;;;;;;527.47;356.42;;;;;;;;;;4998156;28;20109;-75
2021/05/27 09:23:35;;;;;;;531.30;360.08;;;;;;;;;;4988525;28;20048;-76
2021/05/27 09:26:06;;;;;;;530.22;362.85;;;;;;;;;;5004561;28;20075;-74
2021/05/27 09:28:32;;;;;;;;;;;;;;;;;;4976350;28;20425;-75
2021/05/27 09:31:05;;;;;;;530.22;328.50;;;;;;;;;;4980485;28;20017;-76
2021/05/27 09:33:33;;;;;;;540.80;358.38;;;;;;;;;;5002347;28;20405;-76
2021/05/27 09:36:00;;;;;;;544.08;360.90;;;;;;;;;;5006264;28;20018;-75
2021/05/27 09:38:30;;;;;;;546.83;361.60;;;;;;;;;;5001846;28;21528;-75
2021/05/27 09:40:56;;;;;;;656.92;432.00;;;;;;;;;;4979593;28;20030;-78
2021/05/27 09:43:24;;;;;;;552.78;364.67;;;;;;;;;;5001778;28;20045;-76
2021/05/27 09:46:06;;;;;;;538.83;352.75;;;;;;;;;;4993528;28;20053;-75
2021/05/27 09:48:34;;;;;;;554.88;360.95;;;;;;;;;;4995815;28;20030;-74
2021/05/27 09:51:01;;;;;;;563.72;379.75;;;;;;;;;;4981852;28;20519;-77
2021/05/27 09:53:27;;;;;;;600.70;406.45;;;;;;;;;;4997944;28;20463;-75
2021/05/27 09:55:57;;;;;;;734.95;498.15;;;;;;;;;;4996541;28;20023;-76
2021/05/27 09:58:23;;;;;;;481.45;325.55;;;;;;;;;;5000232;28;20041;-76
2021/05/27 10:00:50;;;;;;;492.50;334.88;;;;;;;;;;5004367;28;20093;-76
2021/05/27 10:03:23;;;;;;;501.05;329.23;;;;;;;;;;5000390;28;20023;-76
2021/05/27 10:05:49;;;;;;;511.40;340.63;;;;;;;;;;4997886;28;20057;-75
2021/05/27 10:08:16;;;;;;;519.10;339.92;;;;;;;;;;4987550;28;20050;-76
2021/05/27 10:10:42;;;;;;;524.88;347.50;;;;;;;;;;4984266;28;20076;-75
2021/05/27 10:13:09;;;;;;;576.00;375.48;;;;;;;;;;4995673;28;20022;-77
2021/05/27 10:15:37;;;;;;;558.40;382.30;;;;;;;;;;5005600;28;20049;-77
2021/05/27 10:18:04;;;;;;;556.83;377.65;;;;;;;;;;4991377;28;20409;-75
2021/05/27 10:20:30;;;;;;;554.55;366.73;;;;;;;;;;4985657;28;20117;-79
2021/05/27 10:22:57;;;;;;;531.78;349.13;;;;;;;;;;4982179;28;20438;-77
2021/05/27 10:25:23;;;;;;;553.10;369.30;;;;;;;;;;4979514;28;20022;-77
2021/05/27 10:27:50;;;;;;;539.58;356.10;;;;;;;;;;4990305;28;20060;-76
2021/05/27 10:30:18;;;;;;;614.65;409.42;;;;;;;;;;4981455;28;20085;-77
2021/05/27 10:32:47;;;;;;;595.75;407.92;;;;;;;;;;4978939;28;20019;-76
2021/05/27 10:35:13;;;;;;;572.50;395.42;;;;;;;;;;4974930;28;20056;-76
2021/05/27 10:37:41;;;;;;;559.75;384.73;;;;;;;;;;4994628;28;20032;-78
2021/05/27 10:40:20;;;;;;;549.63;383.10;;;;;;;;;;4998344;28;20069;-76
2021/05/27 10:43:04;;;;;;;529.72;369.50;;;;;;;;;;4980641;28;20511;-76
2021/05/27 10:45:36;;;;;;;541.65;382.35;;;;;;;;;;4974531;28;20033;-75
2021/05/27 10:48:14;;;;;;;535.30;376.50;;;;;;;;;;4992382;28;20018;-76
2021/05/27 10:50:50;;;;;;;534.25;384.17;;;;;;;;;;4990080;28;20037;-76
2021/05/27 10:53:34;;;;;;;537.72;381.63;;;;;;;;;;4996117;28;20381;-76
2021/05/27 10:56:01;;;;;;;545.97;394.85;;;;;;;;;;4991518;28;20018;-77
2021/05/27 10:58:53;;;;;;;552.65;403.63;;;;;;;;;;4977868;28;20118;-75
2021/05/27 11:01:29;;;;;;;552.95;400.20;;;;;;;;;;4976327;28;20030;-75
2021/05/27 11:03:59;;;;;;;555.40;414.27;;;;;;;;;;4989414;28;20143;-76
2021/05/27 11:06:27;;;;;;;566.72;418.88;;;;;;;;;;4994225;28;20083;-74
2021/05/27 11:11:54;;;;;;;585.40;410.80;;;;;;;;;;4990208;28;20127;-76
2021/05/27 11:14:25;;;;;;;567.85;408.00;;;;;;;;;;4997651;28;20036;-76
2021/05/27 11:17:03;;;;;;;578.65;402.27;;;;;;;;;;4975856;28;20034;-76
2021/05/27 11:19:59;;;;;;;606.78;426.33;;;;;;;;;;4992130;28;20084;-77
2021/05/27 11:22:28;;;;;;;608.33;431.40;;;;;;;;;;4990209;28;20138;-77
2021/05/27 11:25:10;;;;;;;551.37;384.37;;;;;;;;;;4981879;28;20029;-75
2021/05/27 11:27:37;;;;;;;548.75;382.00;;;;;;;;;;4991794;28;20437;-77
2021/05/27 11:30:22;;;;;;;555.17;388.30;;;;;;;;;;4975685;28;20579;-76
2021/05/27 11:32:48;;;;;;;553.30;377.27;;;;;;;;;;4994659;28;20045;-75
2021/05/27 11:35:14;;;;;;;545.72;375.65;;;;;;;;;;4977312;28;20022;-75
2021/05/27 11:37:43;;;;;;;554.35;379.30;;;;;;;;;;4992484;28;20100;-77
2021/05/27 11:40:10;;;;;;;592.58;407.38;;;;;;;;;;4987160;28;20134;-76
2021/05/27 11:42:37;;;;;;;590.67;411.40;;;;;;;;;;4979570;28;20018;-79
2021/05/27 11:45:05;;;;;;;563.97;388.23;;;;;;;;;;4978371;28;20075;-76
2021/05/27 11:47:31;;;;;;;555.85;382.10;;;;;;;;;;4985066;28;20018;-76
2021/05/27 11:50:01;;;;;;;567.30;392.63;;;;;;;;;;4978206;28;20321;-75
2021/05/27 11:52:27;;;;;;;578.15;402.05;;;;;;;;;;4993397;28;20018;-75
2021/05/27 11:54:53;;;;;;;581.35;410.23;;;;;;;;;;4982010;28;20109;-75
2021/05/27 11:57:23;;;;;;;572.47;405.67;;;;;;;;;;4993271;28;20023;-77
2021/05/27 12:00:04;;;;;;;565.03;398.42;;;;;;;;;;4998368;28;20011;-76
2021/05/27 12:02:40;;;;;;;574.55;406.33;;;;;;;;;;4994325;28;20030;-77
2021/05/27 12:05:25;;;;;;;572.35;410.15;;;;;;;;;;4979983;28;20015;-76
2021/05/27 12:08:01;;;;;;;582.30;428.95;;;;;;;;;;4996162;28;20050;-76
2021/05/27 12:10:29;;;;;;;576.60;426.95;;;;;;;;;;4986264;28;20057;-77
2021/05/27 12:12:55;;;;;;;577.83;429.67;;;;;;;;;;5002601;28;20021;-75
2021/05/27 12:15:22;;;;;;;571.20;423.90;;;;;;;;;;5000400;28;20029;-76
2021/05/27 12:17:49;;;;;;;557.45;405.50;;;;;;;;;;4996447;28;20023;-77
2021/05/27 12:20:36;;;;;;;571.97;428.88;;;;;;;;;;5002858;28;20037;-75
2021/05/27 12:23:05;;;;;;;575.72;421.52;;;;;;;;;;4998416;28;20505;-75
2021/05/27 12:25:31;;;;;;;555.15;392.20;;;;;;;;;;4997411;28;20027;-75
2021/05/27 12:27:59;;;;;;;564.35;405.63;;;;;;;;;;5004589;28;20344;-77
2021/05/27 12:30:27;;;;;;;564.70;403.98;;;;;;;;;;4980062;28;20026;-75
2021/05/27 12:32:54;;;;;;;565.38;409.13;;;;;;;;;;4979294;28;20113;-76
2021/05/27 12:35:32;;;;;;;542.05;372.88;;;;;;;;;;4984960;28;20010;-76
2021/05/27 12:38:00;;;;;;;568.03;403.60;;;;;;;;;;4984573;28;20019;-77
2021/05/27 12:40:35;;;;;;;556.80;396.00;;;;;;;;;;5001577;28;20113;-76
2021/05/27 12:43:01;;;;;;;548.05;379.63;;;;;;;;;;5000497;28;20121;-76
2021/05/27 12:45:30;;;;;;;561.50;401.63;;;;;;;;;;4997356;28;20105;-76
2021/05/27 12:48:15;;;;;;;549.83;391.35;;;;;;;;;;4984033;28;20407;-75
2021/05/27 12:50:42;;;;;;;548.22;396.95;;;;;;;;;;4985456;28;20038;-83
2021/05/27 12:53:25;;;;;;;559.95;414.05;;;;;;;;;;4986123;28;20079;-77
2021/05/27 12:55:51;;;;;;;562.03;412.65;;;;;;;;;;4988906;28;20026;-79
2021/05/27 12:58:36;;;;;;;578.30;446.17;;;;;;;;;;4981350;28;20098;-76
2021/05/27 13:01:03;;;;;;;558.92;417.30;;;;;;;;;;4989147;28;20027;-79
2021/05/27 13:03:29;;;;;;;558.13;417.27;;;;;;;;;;4979201;28;20022;-80
2021/05/27 13:06:06;;;;;;;561.00;416.45;;;;;;;;;;4993103;28;20028;-78
2021/05/27 13:08:32;;;;;;;546.28;407.10;;;;;;;;;;4985737;28;20054;-79
2021/05/27 13:10:58;;;;;;;553.97;403.85;;;;;;;;;;4995565;28;20131;-81
2021/05/27 13:13:32;;;;;;;566.22;421.42;;;;;;;;;;4988984;28;20049;-80
2021/05/27 13:15:58;;;;;;;554.97;410.60;;;;;;;;;;4987321;28;20026;-79
2021/05/27 13:18:24;;;;;;;561.42;414.83;;;;;;;;;;5003682;28;20428;-78
2021/05/27 13:20:56;;;;;;;527.42;384.05;;;;;;;;;;4985577;28;20026;-79
2021/05/27 13:23:30;;;;;;;543.65;394.30;;;;;;;;;;4994527;28;20379;-79
2021/05/27 13:26:16;;;;;;;569.08;413.48;;;;;;;;;;4986101;28;20032;-79
2021/05/27 13:28:43;;;;;;;565.38;419.42;;;;;;;;;;4992005;28;20448;-79
2021/05/27 13:31:10;;;;;;;560.67;418.52;;;;;;;;;;4985856;28;20029;-78
2021/05/27 13:33:36;;;;;;;557.33;412.40;;;;;;;;;;5004324;28;20045;-80
2021/05/27 13:36:03;;;;;;;554.08;407.23;;;;;;;;;;5001614;28;20448;-79
2021/05/27 13:38:30;;;;;;;559.25;422.23;;;;;;;;;;4997940;28;20034;-78
2021/05/27 13:40:57;;;;;;;551.30;421.88;;;;;;;;;;4998658;28;20089;-77
2021/05/27 13:43:28;;;;;;;555.40;422.27;;;;;;;;;;4983122;28;20026;-78
2021/05/27 13:45:55;;;;;;;553.30;419.83;;;;;;;;;;4999017;28;20041;-78
2021/05/27 13:48:21;;;;;;;554.53;420.33;;;;;;;;;;4982576;28;20356;-78
2021/05/27 13:50:47;;;;;;;557.85;422.70;;;;;;;;;;4995740;28;20045;-78
2021/05/27 13:53:13;;;;;;;574.40;436.95;;;;;;;;;;4992166;28;20021;-77
2021/05/27 13:55:55;;;;;;;550.53;413.95;;;;;;;;;;4986109;28;20028;-77
2021/05/27 13:58:25;;;;;;;558.70;414.25;;;;;;;;;;4994916;28;20019;-77
2021/05/27 14:00:51;;;;;;;576.53;436.33;;;;;;;;;;4995785;28;20041;-79
2021/05/27 14:03:17;;;;;;;601.30;456.23;;;;;;;;;;4994258;28;20029;-78
2021/05/27 14:05:44;;;;;;;581.10;423.48;;;;;;;;;;4982107;28;20060;-79
2021/05/27 14:08:12;;;;;;;568.33;420.00;;;;;;;;;;4987757;28;20058;-78
2021/05/27 14:10:37;;;;;;;579.50;435.80;;;;;;;;;;4991435;28;20042;-76
2021/05/27 14:13:05;;;;;;;600.65;444.63;;;;;;;;;;4988985;28;20039;-78
2021/05/27 14:15:31;;;;;;;573.80;423.38;;;;;;;;;;4981029;28;20045;-78